ADDS METAR Data INFO
IDs: Format: Raw Decoded Include TAF

Data at: 1920 UTC 19 Jul 2018

KMAI 191911Z AUTO 20007KT 10SM VCTS CLR 34/25 A2987 RMK AO2 LTG DSNT N-SE T03390250
KMAI 191853Z AUTO 21008KT 10SM CLR 33/24 A2988 RMK AO2 LTG DSNT NW-NE SLP114 T03330244
KMAI 191753Z AUTO VRB06KT 10SM SCT036 SCT045 BKN110 33/25 A2990 RMK AO2 LTG DSNT N SLP121 T03280250 10333 20244 58016
KMAI 191653Z AUTO 10SM CLR 32/24 A2993 RMK AO2 SLP133 T03220244
KMAI 191553Z AUTO VRB03KT 10SM FEW048 30/25 A2994 RMK AO2 SLP137 T03000250
KMAI 191453Z AUTO 27004KT 10SM FEW016 29/24 A2994 RMK AO2 SLP137 T02890244 53002
KMAI 191353Z AUTO 28005KT 10SM FEW090 27/24 A2994 RMK AO2 SLP136 T02720244
KMAI 191253Z AUTO 28005KT 10SM FEW060 26/24 A2993 RMK AO2 SLP134 T02610244
KMAI 191153Z AUTO 27003KT 10SM SCT011 OVC055 24/24 A2994 RMK AO2 SLP134 T02440239 10256 20244 53014
KMAI 191053Z AUTO 27003KT 9SM CLR 24/24 A2992 RMK AO2 SLP131 T02440239
KMAI 190953Z AUTO 26003KT 9SM CLR 24/24 A2990 RMK AO2 SLP124 T02440244
KMAI 190853Z AUTO 00000KT 10SM CLR 25/24 A2989 RMK AO2 SLP120 T02500244 55003
KMAI 190753Z AUTO 20003KT 10SM CLR 25/24 A2988 RMK AO2 SLP114 T02500244
KMAI 190653Z AUTO 20003KT 10SM CLR 25/24 A2988 RMK AO2 SLP116 T02500244
KMAI 190553Z AUTO 00000KT 10SM CLR 26/25 A2990 RMK AO2 SLP123 T02560250 10283 20256 403390239 58008
KMAI 190453Z AUTO 00000KT 10SM CLR 26/25 A2992 RMK AO2 SLP128 T02560250
KMAI 190353Z AUTO 20004KT 10SM CLR 26/24 A2992 RMK AO2 SLP130 T02610244
KMAI 190253Z AUTO 00000KT 10SM CLR 26/24 A2993 RMK AO2 SLP132 T02610244 51012
KMAI 190153Z AUTO 20004KT 10SM CLR 26/24 A2992 RMK AO2 SLP128 T02610244
KMAI 190053Z AUTO 21005KT 10SM FEW070 27/24 A2990 RMK AO2 SLP123 T02670244
KMAI 182353Z AUTO 20009KT 10SM SCT046 BKN060 OVC085 28/24 A2989 RMK AO2 SLP119 T02830244 10339 20283 51003
KMAI 182253Z AUTO 20008KT 10SM FEW050 29/25 A2988 RMK AO2 SLP116 T02890250
KMAI 182241Z AUTO 20010KT 10SM FEW050 29/26 A2988 RMK AO2 T02940256
KMAI 182218Z AUTO 23008KT 10SM VCTS CLR 29/25 A2990 RMK AO2 LTG DSNT S AND SW T02940250
KMAI 182153Z AUTO 21010KT 10SM FEW043 SCT055 BKN070 30/24 A2989 RMK AO2 LTG DSNT SE AND S SLP121 T03000244
KMAI 182053Z AUTO 27003KT 10SM CLR 34/24 A2988 RMK AO2 LTG DSNT SE AND S SLP116 T03390244 56023
KMAI 181953Z AUTO 26003KT 10SM CLR 33/24 A2990 RMK AO2 SLP123 T03280239
KMAI 181853Z AUTO 00000KT 10SM CLR 32/24 A2992 RMK AO2 SLP131 T03220239
KMAI 181753Z AUTO 16004KT 10SM FEW043 FEW070 32/25 A2995 RMK AO2 SLP139 T03170250 10322 20239 58013
KMAI 181733Z AUTO VRB03KT 10SM SCT029 BKN043 BKN065 31/24 A2996 RMK AO2 T03110239
KMAI 181719Z AUTO 33004KT 10SM BKN029 BKN036 OVC075 31/24 A2996 RMK AO2 T03110244
KMAI 181653Z AUTO 28003KT 10SM SCT027 BKN036 OVC070 30/24 A2997 RMK AO2 SLP146 T03000239
KMAI 181631Z AUTO 19003KT 10SM BKN027 31/24 A2997 RMK AO2 T03060244
KMAI 181553Z AUTO VRB03KT 10SM FEW025 30/25 A2998 RMK AO2 SLP149 T03000250
KMAI 181453Z AUTO 00000KT 10SM FEW012 28/24 A2999 RMK AO2 SLP152 T02780244 58000
KMAI 181426Z AUTO 00000KT 10SM SCT009 28/24 A2999 RMK AO2 T02780244
KMAI 181353Z AUTO 00000KT 10SM OVC007 26/24 A3000 RMK AO2 SLP155 T02610239
KMAI 181335Z AUTO 00000KT 10SM OVC005 26/24 A3000 RMK AO2 CIG 004V008 T02560239
KMAI 181253Z AUTO VRB04KT 10SM OVC003 25/24 A2999 RMK AO2 SLP152 T02500239
KMAI 181201Z AUTO 26005KT 8SM OVC003 24/24 A2999 RMK AO2 T02440239
KMAI 181153Z AUTO 26007KT 10SM OVC005 24/24 A2999 RMK AO2 SLP152 70016 T02440239 10261 20244 53008
KMAI 181144Z AUTO 27005KT 10SM BKN005 24/24 A2999 RMK AO2 T02440239
KMAI 181136Z AUTO 26003KT 10SM SCT006 24/24 A2998 RMK AO2 T02440239
KMAI 181053Z AUTO 26003KT 10SM CLR 24/24 A2998 RMK AO2 SLP148 T02440239
KMAI 180953Z AUTO 25004KT 10SM CLR 24/24 A2997 RMK AO2 SLP147 T02440239
KMAI 180853Z AUTO 00000KT 10SM CLR 24/24 A2996 RMK AO2 SLP144 T02440239 56008
KMAI 180753Z AUTO 22004KT 10SM CLR 25/24 A2997 RMK AO2 SLP146 T02500244